Time;durP1;ratioP1;P1;durP2;ratioP2;P2;SDS_P1;SDS_P2;PMS_P1;PMS_P2;Temp;Humidity;BMP_temperature;BMP_pressure;BME280_temperature;BME280_humidity;BME280_pressure;Samples;Min_cycle;Max_cycle;Signal;HPM_P1;HPM_P2
2021/10/30 00:01:23;;;;;;;4.63;3.58;;;;;;;;;;5067949;28;20514;-83
2021/10/30 00:03:50;;;;;;;5.82;4.22;;;;;;;;;;5062195;28;20056;-84
2021/10/30 00:06:17;;;;;;;6.05;3.90;;;;;;;;;;5070548;28;20033;-85
2021/10/30 00:08:44;;;;;;;4.53;3.60;;;;;;;;;;5069367;28;20032;-85
2021/10/30 00:11:10;;;;;;;5.75;3.83;;;;;;;;;;5070419;28;20090;-87
2021/10/30 00:13:37;;;;;;;5.03;3.50;;;;;;;;;;5067064;28;20106;-87
2021/10/30 00:16:03;;;;;;;5.63;3.75;;;;;;;;;;5069776;28;20052;-86
2021/10/30 00:18:30;;;;;;;4.65;3.70;;;;;;;;;;5069928;28;20507;-84
2021/10/30 00:20:58;;;;;;;5.93;4.10;;;;;;;;;;5067567;28;20069;-85
2021/10/30 00:23:24;;;;;;;5.05;3.90;;;;;;;;;;5066508;28;20040;-85
2021/10/30 00:25:51;;;;;;;6.75;4.25;;;;;;;;;;5067878;28;20033;-85
2021/10/30 00:28:17;;;;;;;8.23;4.45;;;;;;;;;;5070059;28;20114;-86
2021/10/30 00:30:44;;;;;;;4.88;4.15;;;;;;;;;;5065954;28;20086;-86
2021/10/30 00:33:11;;;;;;;5.68;4.50;;;;;;;;;;5071781;28;20017;-88
2021/10/30 00:35:37;;;;;;;6.30;4.50;;;;;;;;;;5070262;28;20051;-88
2021/10/30 00:38:03;;;;;;;5.47;4.38;;;;;;;;;;5069543;28;20040;-88
2021/10/30 00:40:30;;;;;;;5.25;3.80;;;;;;;;;;5069834;28;20056;-88
2021/10/30 00:42:56;;;;;;;6.38;3.85;;;;;;;;;;5065062;28;20039;-87
2021/10/30 00:45:23;;;;;;;6.40;4.13;;;;;;;;;;5064514;28;20056;-86
2021/10/30 00:47:49;;;;;;;7.32;4.28;;;;;;;;;;5070103;28;20483;-87
2021/10/30 00:50:15;;;;;;;5.47;4.18;;;;;;;;;;5060395;28;20033;-85
2021/10/30 00:52:42;;;;;;;6.05;4.38;;;;;;;;;;5082678;28;20048;-87
2021/10/30 00:55:09;;;;;;;5.38;4.07;;;;;;;;;;5070775;28;20032;-86
2021/10/30 00:57:38;;;;;;;6.60;4.40;;;;;;;;;;5064344;28;20098;-86
2021/10/30 01:00:05;;;;;;;5.20;4.03;;;;;;;;;;5070150;28;20060;-86
2021/10/30 01:02:31;;;;;;;7.13;4.68;;;;;;;;;;5065612;28;20055;-86
2021/10/30 01:04:58;;;;;;;5.20;4.15;;;;;;;;;;5068160;28;20107;-86
2021/10/30 01:07:26;;;;;;;5.60;4.63;;;;;;;;;;5073432;28;20074;-87
2021/10/30 01:09:53;;;;;;;6.38;4.55;;;;;;;;;;5066229;28;20055;-87
2021/10/30 01:12:20;;;;;;;5.30;4.28;;;;;;;;;;5066932;28;20068;-87
2021/10/30 01:14:47;;;;;;;5.65;4.57;;;;;;;;;;5068715;28;20052;-86
2021/10/30 01:17:13;;;;;;;6.15;4.72;;;;;;;;;;5069471;28;20052;-87
2021/10/30 01:19:40;;;;;;;5.68;4.53;;;;;;;;;;5067613;28;20090;-87
2021/10/30 01:22:06;;;;;;;6.13;4.65;;;;;;;;;;5064020;28;20064;-87
2021/10/30 01:24:32;;;;;;;6.93;4.82;;;;;;;;;;5066143;28;20060;-85
2021/10/30 01:26:59;;;;;;;5.50;4.20;;;;;;;;;;5066942;28;20408;-85
2021/10/30 01:29:25;;;;;;;5.65;4.38;;;;;;;;;;5066947;28;20504;-84
2021/10/30 01:31:53;;;;;;;5.97;4.85;;;;;;;;;;5068797;28;20056;-85
2021/10/30 01:34:24;;;;;;;5.50;4.65;;;;;;;;;;5061729;28;20057;-85
2021/10/30 01:36:51;;;;;;;7.05;5.03;;;;;;;;;;5069330;28;20063;-85
2021/10/30 01:39:18;;;;;;;6.88;5.47;;;;;;;;;;5064066;28;20048;-85
2021/10/30 01:41:44;;;;;;;7.85;4.90;;;;;;;;;;5069837;28;20064;-85
2021/10/30 01:44:11;;;;;;;6.20;5.13;;;;;;;;;;5066538;28;20075;-85
2021/10/30 01:46:38;;;;;;;5.65;4.60;;;;;;;;;;5069559;28;20880;-86
2021/10/30 01:49:05;;;;;;;7.07;5.28;;;;;;;;;;5062113;28;20106;-86
2021/10/30 01:51:31;;;;;;;7.00;5.60;;;;;;;;;;5066417;28;20513;-85
2021/10/30 01:53:58;;;;;;;6.30;4.90;;;;;;;;;;5063008;28;20063;-85
2021/10/30 01:56:24;;;;;;;9.77;5.00;;;;;;;;;;5061269;28;20400;-85
2021/10/30 01:58:51;;;;;;;6.68;5.13;;;;;;;;;;5063910;28;20067;-85
2021/10/30 02:01:17;;;;;;;6.82;5.22;;;;;;;;;;5068071;28;20118;-84
2021/10/30 02:03:43;;;;;;;6.35;5.15;;;;;;;;;;5071972;28;20064;-85
2021/10/30 02:06:10;;;;;;;7.35;5.30;;;;;;;;;;5073553;28;20060;-85
2021/10/30 02:08:36;;;;;;;6.47;5.10;;;;;;;;;;5071641;28;20102;-86
2021/10/30 02:11:03;;;;;;;6.15;5.20;;;;;;;;;;5066613;28;20032;-86
2021/10/30 02:13:30;;;;;;;6.32;5.07;;;;;;;;;;5070381;28;20063;-88
2021/10/30 02:15:57;;;;;;;7.93;5.13;;;;;;;;;;5063543;28;20040;-86
2021/10/30 02:18:23;;;;;;;7.00;5.45;;;;;;;;;;5073090;28;20040;-86
2021/10/30 02:20:50;;;;;;;6.70;5.50;;;;;;;;;;5070663;28;20562;-86
2021/10/30 02:23:16;;;;;;;7.80;5.70;;;;;;;;;;5061071;28;20029;-85
2021/10/30 02:25:43;;;;;;;6.72;5.28;;;;;;;;;;5068642;28;20086;-86
2021/10/30 02:28:09;;;;;;;6.40;5.72;;;;;;;;;;5073244;28;20064;-87
2021/10/30 02:30:36;;;;;;;7.82;6.28;;;;;;;;;;5070605;28;20409;-85
2021/10/30 02:33:03;;;;;;;7.07;5.55;;;;;;;;;;5071859;28;20052;-85
2021/10/30 02:35:29;;;;;;;7.40;5.60;;;;;;;;;;5071901;28;20111;-85
2021/10/30 02:37:56;;;;;;;7.85;5.63;;;;;;;;;;5070866;28;20056;-85
2021/10/30 02:40:22;;;;;;;6.70;5.30;;;;;;;;;;5068933;28;20033;-84
2021/10/30 02:42:49;;;;;;;6.70;5.68;;;;;;;;;;5068191;28;20064;-85
2021/10/30 02:45:15;;;;;;;7.93;5.35;;;;;;;;;;5065728;28;20060;-84
2021/10/30 02:47:41;;;;;;;6.35;5.30;;;;;;;;;;5065319;28;21209;-85
2021/10/30 02:50:08;;;;;;;8.57;5.65;;;;;;;;;;5071532;28;20047;-84
2021/10/30 02:52:34;;;;;;;7.82;5.75;;;;;;;;;;5060684;28;20061;-84
2021/10/30 02:55:01;;;;;;;7.35;5.15;;;;;;;;;;5067819;28;20500;-84
2021/10/30 02:57:27;;;;;;;7.50;5.95;;;;;;;;;;5064166;28;20503;-84
2021/10/30 02:59:54;;;;;;;7.43;5.72;;;;;;;;;;5063918;28;20057;-85
2021/10/30 03:02:21;;;;;;;6.00;5.07;;;;;;;;;;5071709;28;20094;-84
2021/10/30 03:04:47;;;;;;;6.55;5.72;;;;;;;;;;5071318;28;20033;-85
2021/10/30 03:07:14;;;;;;;7.95;5.70;;;;;;;;;;5060181;28;20036;-85
2021/10/30 03:09:41;;;;;;;6.90;5.88;;;;;;;;;;5068737;28;20032;-85
2021/10/30 03:12:07;;;;;;;8.07;6.57;;;;;;;;;;5069904;28;20048;-86
2021/10/30 03:14:33;;;;;;;7.57;5.82;;;;;;;;;;5058107;28;20080;-85
2021/10/30 03:17:00;;;;;;;6.60;5.45;;;;;;;;;;5079190;28;20059;-85
2021/10/30 03:19:26;;;;;;;7.95;5.82;;;;;;;;;;5065831;28;20496;-85
2021/10/30 03:21:53;;;;;;;7.85;6.00;;;;;;;;;;5070268;28;20079;-85
2021/10/30 03:24:20;;;;;;;7.32;5.55;;;;;;;;;;5065122;28;20028;-86
2021/10/30 03:26:47;;;;;;;7.55;6.07;;;;;;;;;;5067571;28;20052;-86
2021/10/30 03:29:13;;;;;;;8.68;6.50;;;;;;;;;;5050859;28;20040;-87
2021/10/30 03:31:40;;;;;;;8.13;5.72;;;;;;;;;;5071063;28;20068;-87
2021/10/30 03:34:06;;;;;;;8.50;6.00;;;;;;;;;;5069450;28;20496;-86
2021/10/30 03:36:32;;;;;;;8.02;6.13;;;;;;;;;;5065177;28;20090;-86
2021/10/30 03:38:59;;;;;;;7.65;6.07;;;;;;;;;;5064215;28;20032;-85
2021/10/30 03:41:25;;;;;;;7.32;6.20;;;;;;;;;;5068525;28;20064;-85
2021/10/30 03:43:52;;;;;;;7.88;6.35;;;;;;;;;;5070766;28;20048;-87
2021/10/30 03:46:18;;;;;;;8.65;6.50;;;;;;;;;;5065496;28;20430;-85
2021/10/30 03:48:45;;;;;;;7.55;6.53;;;;;;;;;;5070972;28;20033;-86
2021/10/30 03:51:11;;;;;;;8.00;5.95;;;;;;;;;;5068962;28;20056;-85
2021/10/30 03:53:37;;;;;;;9.30;6.57;;;;;;;;;;5069101;28;20471;-83
2021/10/30 03:56:04;;;;;;;9.05;6.47;;;;;;;;;;5069471;28;20089;-86
2021/10/30 03:58:31;;;;;;;9.30;6.60;;;;;;;;;;5056653;28;20057;-86
2021/10/30 04:00:57;;;;;;;7.40;6.38;;;;;;;;;;5070113;28;20032;-85
2021/10/30 04:03:24;;;;;;;7.43;6.22;;;;;;;;;;5068497;28;20032;-86
2021/10/30 04:05:50;;;;;;;7.28;6.30;;;;;;;;;;5071678;28;20056;-86
2021/10/30 04:08:19;;;;;;;8.05;5.88;;;;;;;;;;5065856;28;20052;-85
2021/10/30 04:10:46;;;;;;;8.23;6.20;;;;;;;;;;5063990;28;20048;-86
2021/10/30 04:13:12;;;;;;;7.95;6.82;;;;;;;;;;5068366;28;20409;-86
2021/10/30 04:15:39;;;;;;;7.97;6.65;;;;;;;;;;5068827;28;20033;-86
2021/10/30 04:18:05;;;;;;;8.60;6.65;;;;;;;;;;5068838;28;20032;-87
2021/10/30 04:20:31;;;;;;;8.07;6.45;;;;;;;;;;5066870;28;20060;-86
2021/10/30 04:22:58;;;;;;;7.85;6.07;;;;;;;;;;5071238;28;20060;-88
2021/10/30 04:25:24;;;;;;;8.02;6.55;;;;;;;;;;5067641;28;20044;-87
2021/10/30 04:27:51;;;;;;;8.07;6.22;;;;;;;;;;5069277;28;20098;-88
2021/10/30 04:30:18;;;;;;;9.07;6.85;;;;;;;;;;5066773;28;20029;-84
2021/10/30 04:32:44;;;;;;;8.85;6.35;;;;;;;;;;5065141;28;20071;-86
2021/10/30 04:35:11;;;;;;;7.90;6.28;;;;;;;;;;5064086;28;20039;-84
2021/10/30 04:37:38;;;;;;;8.63;6.22;;;;;;;;;;5059817;28;20063;-85
2021/10/30 04:40:05;;;;;;;8.45;6.85;;;;;;;;;;5063076;28;20135;-87
2021/10/30 04:42:31;;;;;;;7.25;6.28;;;;;;;;;;5064118;28;20045;-87
2021/10/30 04:44:58;;;;;;;7.95;6.55;;;;;;;;;;5067860;28;20052;-86
2021/10/30 04:47:25;;;;;;;10.05;6.63;;;;;;;;;;5070477;28;20056;-86
2021/10/30 04:49:51;;;;;;;7.00;6.22;;;;;;;;;;5069677;28;20056;-85
2021/10/30 04:52:18;;;;;;;7.82;6.25;;;;;;;;;;5054912;28;20059;-85
2021/10/30 04:54:44;;;;;;;9.68;7.03;;;;;;;;;;5069281;28;20431;-85
2021/10/30 04:57:11;;;;;;;7.85;6.30;;;;;;;;;;5069709;28;20060;-85
2021/10/30 04:59:37;;;;;;;9.30;6.70;;;;;;;;;;5069931;28;20060;-85
2021/10/30 05:02:04;;;;;;;7.25;6.50;;;;;;;;;;5069775;28;20067;-85
2021/10/30 05:04:30;;;;;;;8.10;6.85;;;;;;;;;;5068756;28;20064;-85
2021/10/30 05:06:57;;;;;;;8.63;7.00;;;;;;;;;;5070233;28;20060;-85
2021/10/30 05:09:24;;;;;;;8.57;6.40;;;;;;;;;;5065383;28;20064;-85
2021/10/30 05:11:50;;;;;;;8.15;6.70;;;;;;;;;;5065273;28;20036;-87
2021/10/30 05:14:17;;;;;;;9.23;6.78;;;;;;;;;;5074403;28;20130;-84
2021/10/30 05:16:43;;;;;;;8.52;6.35;;;;;;;;;;5066640;28;20496;-87
2021/10/30 05:19:09;;;;;;;8.05;6.95;;;;;;;;;;5068361;28;20442;-85
2021/10/30 05:21:36;;;;;;;9.43;7.50;;;;;;;;;;5066434;28;20056;-86
2021/10/30 05:24:02;;;;;;;8.75;6.60;;;;;;;;;;5068125;28;20048;-87
2021/10/30 05:26:29;;;;;;;9.32;7.00;;;;;;;;;;5065796;28;20059;-87
2021/10/30 05:28:55;;;;;;;7.35;6.25;;;;;;;;;;5069241;28;20072;-88
2021/10/30 05:31:22;;;;;;;9.02;6.38;;;;;;;;;;5067652;28;20086;-88
2021/10/30 05:33:48;;;;;;;8.23;6.80;;;;;;;;;;5046505;28;20049;-88
2021/10/30 05:36:16;;;;;;;9.02;7.10;;;;;;;;;;5068382;28;20064;-87
2021/10/30 05:38:49;;;;;;;8.45;6.60;;;;;;;;;;5067900;28;21315;-86
2021/10/30 05:41:17;;;;;;;8.75;7.28;;;;;;;;;;5072577;28;20036;-86
2021/10/30 05:43:43;;;;;;;7.97;7.03;;;;;;;;;;5071285;28;21341;-89
2021/10/30 05:46:10;;;;;;;7.68;6.60;;;;;;;;;;5065553;28;20153;-88
2021/10/30 05:48:37;;;;;;;8.35;6.50;;;;;;;;;;5070608;28;20075;-88
2021/10/30 05:51:05;;;;;;;8.77;6.95;;;;;;;;;;5071696;28;20033;-88
2021/10/30 05:53:32;;;;;;;8.88;7.40;;;;;;;;;;5058599;28;20037;-86
2021/10/30 05:55:58;;;;;;;9.00;7.10;;;;;;;;;;5074285;28;20029;-86
2021/10/30 05:58:25;;;;;;;7.63;6.53;;;;;;;;;;5062143;28;20036;-86
2021/10/30 06:00:51;;;;;;;10.13;7.38;;;;;;;;;;5065635;28;20040;-86
2021/10/30 06:03:18;;;;;;;8.70;7.10;;;;;;;;;;5067375;28;20060;-84
2021/10/30 06:05:45;;;;;;;9.15;7.00;;;;;;;;;;5075789;28;20060;-85
2021/10/30 06:08:11;;;;;;;9.20;6.78;;;;;;;;;;5066220;28;20141;-84
2021/10/30 06:10:37;;;;;;;8.35;7.32;;;;;;;;;;5070483;28;20083;-83
2021/10/30 06:13:04;;;;;;;8.70;7.03;;;;;;;;;;5074464;28;20061;-86
2021/10/30 06:15:30;;;;;;;8.00;6.43;;;;;;;;;;5074441;28;20068;-86
2021/10/30 06:17:57;;;;;;;9.40;6.70;;;;;;;;;;5079614;28;20032;-85
2021/10/30 06:20:23;;;;;;;9.55;7.57;;;;;;;;;;5075962;28;20064;-81
2021/10/30 06:22:49;;;;;;;8.70;7.20;;;;;;;;;;5068295;28;20064;-78
2021/10/30 06:25:16;;;;;;;9.50;6.78;;;;;;;;;;5069826;28;20104;-77
2021/10/30 06:27:42;;;;;;;8.05;6.90;;;;;;;;;;5068662;28;21314;-80
2021/10/30 06:30:11;;;;;;;9.32;6.90;;;;;;;;;;5067040;28;20075;-80
2021/10/30 06:32:38;;;;;;;7.93;6.82;;;;;;;;;;5068298;28;20067;-80
2021/10/30 06:35:06;;;;;;;11.65;7.03;;;;;;;;;;5059562;28;20052;-79
2021/10/30 06:37:33;;;;;;;17.08;10.82;;;;;;;;;;5060741;28;20843;-77
2021/10/30 06:40:00;;;;;;;14.32;10.50;;;;;;;;;;5062565;28;20189;-77
2021/10/30 06:42:26;;;;;;;16.52;11.85;;;;;;;;;;5067691;28;20091;-78
2021/10/30 06:44:53;;;;;;;8.10;7.13;;;;;;;;;;5068831;28;20150;-77
2021/10/30 06:47:19;;;;;;;11.10;7.53;;;;;;;;;;5068057;28;20067;-78
2021/10/30 06:49:46;;;;;;;13.50;7.97;;;;;;;;;;5063394;28;20060;-78
2021/10/30 06:52:12;;;;;;;10.80;7.43;;;;;;;;;;5071631;28;20080;-77
2021/10/30 06:54:38;;;;;;;9.40;7.45;;;;;;;;;;5057928;28;20061;-77
2021/10/30 06:57:09;;;;;;;8.68;7.43;;;;;;;;;;5070613;28;20048;-77
2021/10/30 06:59:36;;;;;;;8.83;6.80;;;;;;;;;;5064176;28;20060;-80
2021/10/30 07:02:04;;;;;;;9.27;7.30;;;;;;;;;;5065604;28;20137;-79
2021/10/30 07:04:30;;;;;;;10.52;6.72;;;;;;;;;;5058653;28;20099;-80
2021/10/30 07:06:57;;;;;;;9.77;7.50;;;;;;;;;;5063316;28;20044;-80
2021/10/30 07:09:23;;;;;;;12.57;7.85;;;;;;;;;;5065656;28;20071;-81
2021/10/30 07:11:49;;;;;;;9.50;7.45;;;;;;;;;;5062301;28;20520;-80
2021/10/30 07:14:17;;;;;;;9.70;7.47;;;;;;;;;;5068264;28;20071;-80
2021/10/30 07:16:44;;;;;;;8.88;7.38;;;;;;;;;;5065576;28;20029;-80
2021/10/30 07:19:10;;;;;;;9.30;7.25;;;;;;;;;;5067198;28;20064;-79
2021/10/30 07:56:04;;;;;;;8.52;6.25;;;;;;;;;;5013725;28;19956;-87
2021/10/30 07:58:37;;;;;;;12.05;7.72;;;;;;;;;;5030474;28;20398;-89
2021/10/30 08:01:04;;;;;;;11.73;7.15;;;;;;;;;;5049941;28;20029;-88
2021/10/30 08:03:30;;;;;;;10.35;6.50;;;;;;;;;;5040984;28;20029;-88
2021/10/30 08:05:56;;;;;;;8.40;6.95;;;;;;;;;;5047213;28;20037;-88
2021/10/30 08:08:23;;;;;;;8.30;6.50;;;;;;;;;;5043240;28;20041;-85
2021/10/30 08:10:49;;;;;;;8.85;6.50;;;;;;;;;;5049970;28;20029;-87
2021/10/30 08:13:16;;;;;;;10.07;6.68;;;;;;;;;;5051946;28;20032;-87
2021/10/30 08:15:43;;;;;;;9.15;6.35;;;;;;;;;;5043695;28;20124;-88
2021/10/30 08:18:10;;;;;;;8.32;6.75;;;;;;;;;;5049376;28;20021;-89
2021/10/30 08:20:36;;;;;;;13.00;6.75;;;;;;;;;;5039597;28;20029;-89
2021/10/30 08:23:03;;;;;;;8.48;6.70;;;;;;;;;;5046618;28;20070;-89
2021/10/30 08:25:30;;;;;;;11.65;6.75;;;;;;;;;;5028538;28;20566;-88
2021/10/30 08:27:56;;;;;;;9.35;6.43;;;;;;;;;;5051992;28;20171;-89
2021/10/30 08:30:23;;;;;;;10.35;6.90;;;;;;;;;;5047611;28;20071;-89
2021/10/30 08:32:50;;;;;;;9.85;6.65;;;;;;;;;;5029638;28;20098;-89
2021/10/30 08:35:16;;;;;;;9.00;6.20;;;;;;;;;;5031457;28;20131;-89
2021/10/30 08:37:43;;;;;;;8.43;6.55;;;;;;;;;;5049741;28;21367;-90
2021/10/30 08:40:14;;;;;;;8.32;6.05;;;;;;;;;;5047335;28;20025;-89
2021/10/30 08:42:48;;;;;;;10.18;6.30;;;;;;;;;;5045823;28;20098;-88
2021/10/30 08:45:15;;;;;;;11.77;6.47;;;;;;;;;;5051498;28;20059;-89
2021/10/30 08:47:44;;;;;;;7.35;6.03;;;;;;;;;;5041806;28;20033;-90
2021/10/30 08:50:11;;;;;;;8.70;6.30;;;;;;;;;;5047901;28;20041;-89
2021/10/30 08:52:38;;;;;;;9.02;6.03;;;;;;;;;;5012820;28;20072;-89
2021/10/30 08:55:05;;;;;;;9.55;6.32;;;;;;;;;;5057560;28;20049;-90
2021/10/30 08:57:32;;;;;;;7.82;6.25;;;;;;;;;;5039618;28;20502;-88
2021/10/30 09:00:15;;;;;;;8.35;6.57;;;;;;;;;;5047626;28;20063;-88
2021/10/30 09:02:42;;;;;;;10.30;6.47;;;;;;;;;;5043369;28;20041;-87
2021/10/30 09:05:08;;;;;;;9.23;6.25;;;;;;;;;;5043590;28;20060;-88
2021/10/30 09:07:35;;;;;;;8.07;6.22;;;;;;;;;;5035493;28;20563;-89
2021/10/30 09:10:07;;;;;;;8.15;6.65;;;;;;;;;;5041366;28;20029;-89
2021/10/30 09:12:34;;;;;;;9.00;6.10;;;;;;;;;;5055256;28;20052;-90
2021/10/30 09:15:00;;;;;;;7.47;5.75;;;;;;;;;;5047579;28;20598;-89
2021/10/30 09:17:27;;;;;;;8.20;5.63;;;;;;;;;;5024590;28;20363;-88
2021/10/30 09:19:55;;;;;;;7.40;6.30;;;;;;;;;;5043918;28;20028;-89
2021/10/30 09:22:23;;;;;;;8.63;5.65;;;;;;;;;;5041205;28;20045;-90
2021/10/30 09:24:58;;;;;;;7.85;5.97;;;;;;;;;;5022917;28;20041;-89
2021/10/30 09:27:42;;;;;;;7.35;5.93;;;;;;;;;;5039252;28;20034;-90
2021/10/30 09:30:09;;;;;;;8.45;6.10;;;;;;;;;;5048751;28;20040;-88
2021/10/30 09:32:35;;;;;;;6.97;5.68;;;;;;;;;;5018871;28;20057;-88
2021/10/30 09:35:05;;;;;;;8.95;5.80;;;;;;;;;;5036490;28;20029;-89
2021/10/30 09:37:35;;;;;;;7.13;5.65;;;;;;;;;;5023253;28;20068;-89
2021/10/30 09:40:20;;;;;;;8.35;6.20;;;;;;;;;;5044520;28;20075;-88
2021/10/30 09:42:47;;;;;;;7.70;5.50;;;;;;;;;;5041702;28;20274;-88
2021/10/30 09:45:14;;;;;;;7.03;6.05;;;;;;;;;;5034955;28;20041;-89
2021/10/30 09:47:58;;;;;;;7.03;5.43;;;;;;;;;;5043189;28;20398;-89
2021/10/30 09:50:29;;;;;;;7.03;5.55;;;;;;;;;;5035858;28;20671;-89
2021/10/30 09:52:56;;;;;;;6.97;5.72;;;;;;;;;;5043772;28;20087;-89
2021/10/30 09:55:26;;;;;;;7.15;5.72;;;;;;;;;;5027784;28;20115;-89
2021/10/30 09:58:05;;;;;;;8.70;5.90;;;;;;;;;;5030950;28;20037;-88
2021/10/30 10:00:37;;;;;;;8.43;6.10;;;;;;;;;;5049691;28;20368;-91
2021/10/30 10:03:03;;;;;;;7.65;5.70;;;;;;;;;;5046444;28;20578;-89
2021/10/30 10:05:33;;;;;;;6.90;5.47;;;;;;;;;;5040952;28;20029;-88
2021/10/30 10:08:00;;;;;;;7.18;5.88;;;;;;;;;;5049404;28;20033;-89
2021/10/30 10:10:27;;;;;;;6.88;5.38;;;;;;;;;;5048853;28;20030;-88
2021/10/30 10:12:59;;;;;;;6.80;5.50;;;;;;;;;;5020620;28;20048;-89
2021/10/30 10:15:25;;;;;;;7.85;5.63;;;;;;;;;;5043895;28;20033;-88
2021/10/30 10:17:53;;;;;;;7.03;5.10;;;;;;;;;;5045555;28;20029;-87
2021/10/30 10:20:21;;;;;;;8.80;5.60;;;;;;;;;;5042520;28;20060;-87
2021/10/30 10:22:50;;;;;;;8.73;5.65;;;;;;;;;;5046027;28;20029;-86
2021/10/30 10:25:30;;;;;;;8.43;5.80;;;;;;;;;;5044117;28;20040;-89
2021/10/30 10:28:16;;;;;;;6.70;5.25;;;;;;;;;;5053362;28;20400;-88
2021/10/30 10:30:53;;;;;;;7.40;5.60;;;;;;;;;;5032383;28;20064;-88
2021/10/30 10:33:19;;;;;;;6.35;4.93;;;;;;;;;;5059091;28;20029;-86
2021/10/30 10:36:07;;;;;;;8.98;5.68;;;;;;;;;;5042135;28;20408;-87
2021/10/30 10:39:06;;;;;;;7.20;5.68;;;;;;;;;;5045070;28;20121;-88
2021/10/30 10:41:42;;;;;;;7.07;5.85;;;;;;;;;;4992528;28;20029;-89
2021/10/30 10:44:11;;;;;;;8.15;5.60;;;;;;;;;;5051895;28;20071;-88
2021/10/30 10:46:41;;;;;;;7.55;5.60;;;;;;;;;;5046257;28;20056;-88
2021/10/30 10:49:15;;;;;;;6.30;4.82;;;;;;;;;;5040914;28;20101;-87
2021/10/30 10:52:15;;;;;;;7.88;5.53;;;;;;;;;;5029057;28;20034;-87
2021/10/30 10:54:53;;;;;;;6.50;5.25;;;;;;;;;;5042339;28;20083;-88
2021/10/30 10:57:30;;;;;;;6.60;5.28;;;;;;;;;;5056266;28;20064;-88
2021/10/30 11:00:09;;;;;;;6.60;5.50;;;;;;;;;;5036073;28;20389;-89
2021/10/30 11:02:58;;;;;;;6.13;5.18;;;;;;;;;;5042238;28;20110;-88
2021/10/30 11:05:34;;;;;;;6.55;5.47;;;;;;;;;;5039292;28;20091;-87
2021/10/30 11:08:10;;;;;;;7.57;5.70;;;;;;;;;;5046818;28;20553;-87
2021/10/30 11:10:42;;;;;;;7.43;5.13;;;;;;;;;;5013586;28;20040;-87
2021/10/30 11:13:09;;;;;;;5.70;5.00;;;;;;;;;;5045527;28;20033;-88
2021/10/30 11:15:38;;;;;;;6.60;4.85;;;;;;;;;;5026871;28;20063;-88
2021/10/30 11:18:08;;;;;;;7.00;5.20;;;;;;;;;;5040970;28;20041;-87
2021/10/30 11:20:39;;;;;;;6.82;5.53;;;;;;;;;;5050646;28;20041;-88
2021/10/30 11:23:29;;;;;;;6.60;5.30;;;;;;;;;;5038197;28;20075;-86
2021/10/30 11:26:09;;;;;;;6.90;5.35;;;;;;;;;;5033256;28;20408;-88
2021/10/30 11:28:36;;;;;;;6.88;5.22;;;;;;;;;;5027166;28;20029;-87
2021/10/30 11:31:11;;;;;;;6.80;5.38;;;;;;;;;;5033291;28;20087;-87
2021/10/30 11:33:41;;;;;;;7.38;5.28;;;;;;;;;;5058532;28;20525;-87
2021/10/30 11:36:09;;;;;;;6.25;5.00;;;;;;;;;;5048703;28;20041;-87
2021/10/30 11:38:40;;;;;;;8.50;5.10;;;;;;;;;;5030376;28;20029;-88
2021/10/30 11:41:07;;;;;;;;;;;;;;;;;;5050619;28;20033;-88
2021/10/30 11:43:34;;;;;;;6.63;5.25;;;;;;;;;;5047680;28;19967;-87
2021/10/30 11:46:11;;;;;;;6.45;5.32;;;;;;;;;;5043247;28;20036;-88
2021/10/30 11:48:47;;;;;;;7.53;4.85;;;;;;;;;;5048044;28;20037;-88
2021/10/30 11:51:23;;;;;;;5.57;4.90;;;;;;;;;;5044691;28;20085;-87
2021/10/30 11:53:50;;;;;;;6.60;5.10;;;;;;;;;;5025978;28;20087;-88
2021/10/30 11:56:18;;;;;;;7.32;5.15;;;;;;;;;;5044742;28;20041;-88
2021/10/30 11:58:51;;;;;;;6.60;4.55;;;;;;;;;;5037315;28;20029;-89
2021/10/30 12:01:38;;;;;;;5.43;4.72;;;;;;;;;;5049877;28;20033;-88
2021/10/30 12:04:09;;;;;;;5.53;4.60;;;;;;;;;;5028799;28;20111;-87
2021/10/30 12:06:37;;;;;;;5.65;4.70;;;;;;;;;;5028846;28;20050;-89
2021/10/30 12:09:03;;;;;;;5.80;4.88;;;;;;;;;;5046962;28;20036;-89
2021/10/30 12:11:35;;;;;;;7.07;5.07;;;;;;;;;;5020893;28;20025;-88
2021/10/30 12:14:02;;;;;;;6.15;4.97;;;;;;;;;;5047109;28;20033;-87
2021/10/30 12:16:29;;;;;;;8.25;5.53;;;;;;;;;;5045756;28;20041;-86
2021/10/30 12:19:02;;;;;;;6.07;4.65;;;;;;;;;;5046074;28;20037;-87
2021/10/30 12:21:35;;;;;;;6.85;4.90;;;;;;;;;;5023284;28;20037;-88
2021/10/30 12:24:03;;;;;;;6.07;5.00;;;;;;;;;;5045276;28;20068;-88
2021/10/30 12:26:31;;;;;;;5.47;4.88;;;;;;;;;;5048612;28;20033;-87
2021/10/30 12:29:16;;;;;;;6.13;4.72;;;;;;;;;;5039552;28;20033;-88
2021/10/30 12:31:55;;;;;;;4.78;4.07;;;;;;;;;;5037165;28;20033;-88
2021/10/30 12:34:25;;;;;;;6.72;4.88;;;;;;;;;;5045850;28;20033;-88
2021/10/30 12:36:55;;;;;;;6.72;4.72;;;;;;;;;;5034540;28;20029;-88
2021/10/30 12:39:25;;;;;;;7.00;4.75;;;;;;;;;;5042463;28;20032;-88
2021/10/30 12:41:56;;;;;;;6.18;4.80;;;;;;;;;;5044997;28;20083;-88
2021/10/30 12:44:28;;;;;;;6.80;4.80;;;;;;;;;;5020774;28;20041;-88
2021/10/30 12:47:01;;;;;;;6.95;5.00;;;;;;;;;;5043078;28;20080;-89
2021/10/30 12:49:29;;;;;;;5.72;5.13;;;;;;;;;;5046202;28;20033;-89
2021/10/30 12:51:56;;;;;;;6.60;4.80;;;;;;;;;;5045655;28;20443;-88
2021/10/30 12:54:24;;;;;;;6.22;4.63;;;;;;;;;;5045186;28;20090;-89
2021/10/30 12:56:53;;;;;;;6.78;5.20;;;;;;;;;;5042442;28;20038;-89
2021/10/30 12:59:23;;;;;;;7.80;5.38;;;;;;;;;;5045724;28;20041;-89
2021/10/30 13:01:55;;;;;;;6.30;5.18;;;;;;;;;;5045101;28;20044;-88
2021/10/30 13:04:29;;;;;;;6.32;4.75;;;;;;;;;;5035915;28;20510;-88
2021/10/30 13:07:00;;;;;;;6.45;5.15;;;;;;;;;;5045332;28;20051;-90
2021/10/30 13:09:27;;;;;;;6.82;4.80;;;;;;;;;;5026653;28;20480;-89
2021/10/30 13:11:53;;;;;;;5.47;4.40;;;;;;;;;;5046499;28;20095;-89
2021/10/30 13:14:20;;;;;;;7.15;4.72;;;;;;;;;;5047179;28;20562;-87
2021/10/30 13:16:46;;;;;;;5.78;4.57;;;;;;;;;;5036365;28;20033;-90
2021/10/30 13:19:13;;;;;;;5.97;4.75;;;;;;;;;;5043486;28;20094;-87
2021/10/30 13:21:39;;;;;;;6.93;5.13;;;;;;;;;;5035295;28;20063;-89
2021/10/30 13:24:07;;;;;;;5.20;4.70;;;;;;;;;;5028594;28;20512;-87
2021/10/30 13:26:34;;;;;;;6.28;5.10;;;;;;;;;;5040763;28;20571;-90
2021/10/30 13:29:00;;;;;;;6.18;4.68;;;;;;;;;;5044913;28;20083;-87
2021/10/30 13:31:27;;;;;;;5.63;4.68;;;;;;;;;;5024230;28;20065;-88
2021/10/30 13:33:54;;;;;;;6.15;5.10;;;;;;;;;;5041683;28;20064;-87
2021/10/30 13:36:25;;;;;;;7.57;5.40;;;;;;;;;;5042746;28;20029;-89
2021/10/30 13:38:53;;;;;;;6.95;4.75;;;;;;;;;;5026201;28;20037;-89
2021/10/30 13:41:25;;;;;;;;;;;;;;;;;;5044028;28;20111;-90
2021/10/30 13:43:57;;;;;;;6.30;4.47;;;;;;;;;;5035587;28;19920;-90
2021/10/30 13:46:27;;;;;;;5.75;4.60;;;;;;;;;;5036776;28;20061;-88
2021/10/30 13:48:54;;;;;;;5.55;4.85;;;;;;;;;;5045752;28;20037;-88
2021/10/30 13:51:21;;;;;;;5.40;4.60;;;;;;;;;;5024348;28;20476;-88
2021/10/30 13:53:48;;;;;;;7.00;5.30;;;;;;;;;;5034842;28;20025;-89
2021/10/30 13:56:14;;;;;;;6.05;4.55;;;;;;;;;;5040263;28;20040;-89
2021/10/30 13:58:42;;;;;;;7.22;4.47;;;;;;;;;;5039884;28;20095;-89
2021/10/30 14:01:09;;;;;;;6.45;4.82;;;;;;;;;;5035667;28;20025;-87
2021/10/30 14:03:36;;;;;;;6.75;4.70;;;;;;;;;;5039949;28;20072;-88
2021/10/30 14:06:02;;;;;;;5.50;4.80;;;;;;;;;;5048289;28;20025;-88
2021/10/30 14:08:29;;;;;;;6.35;4.93;;;;;;;;;;5044859;28;20496;-89
2021/10/30 14:10:55;;;;;;;7.20;4.90;;;;;;;;;;5048706;28;20060;-88
2021/10/30 14:13:21;;;;;;;6.55;4.47;;;;;;;;;;5040838;28;20061;-88
2021/10/30 14:15:48;;;;;;;5.93;4.47;;;;;;;;;;5050020;28;20033;-88
2021/10/30 14:18:14;;;;;;;5.10;4.60;;;;;;;;;;5046130;28;20567;-89
2021/10/30 14:20:41;;;;;;;5.75;4.68;;;;;;;;;;5045734;28;20045;-90
2021/10/30 14:23:07;;;;;;;7.57;4.93;;;;;;;;;;5048131;28;20175;-88
2021/10/30 14:25:33;;;;;;;7.55;4.93;;;;;;;;;;5006227;28;20045;-88
2021/10/30 14:28:00;;;;;;;5.82;4.75;;;;;;;;;;5027990;28;20036;-88
2021/10/30 14:30:26;;;;;;;5.72;4.45;;;;;;;;;;5047731;28;20060;-90
2021/10/30 14:32:53;;;;;;;6.13;4.53;;;;;;;;;;5046355;28;20068;-86
2021/10/30 14:35:20;;;;;;;5.82;4.40;;;;;;;;;;5048821;28;20029;-86
2021/10/30 14:37:46;;;;;;;6.47;4.80;;;;;;;;;;5030961;28;20072;-89
2021/10/30 14:40:13;;;;;;;5.93;4.82;;;;;;;;;;5046596;28;20060;-88
2021/10/30 14:42:39;;;;;;;5.70;4.70;;;;;;;;;;5045848;28;20123;-90
2021/10/30 14:45:09;;;;;;;6.15;4.90;;;;;;;;;;5039574;28;20044;-88
2021/10/30 14:47:35;;;;;;;5.68;4.65;;;;;;;;;;5018732;28;20109;-88
2021/10/30 14:50:01;;;;;;;7.18;4.60;;;;;;;;;;5050506;28;20070;-87
2021/10/30 14:52:28;;;;;;;6.00;4.60;;;;;;;;;;5037151;28;20061;-89
2021/10/30 14:54:54;;;;;;;6.13;4.30;;;;;;;;;;5023178;28;20046;-89
2021/10/30 14:57:21;;;;;;;5.63;4.28;;;;;;;;;;5041672;28;20511;-87
2021/10/30 14:59:47;;;;;;;6.00;4.65;;;;;;;;;;5047888;28;20052;-87
2021/10/30 15:02:13;;;;;;;6.65;4.60;;;;;;;;;;5048856;28;20041;-88
2021/10/30 15:04:40;;;;;;;5.88;4.72;;;;;;;;;;5057035;28;20065;-89
2021/10/30 15:07:06;;;;;;;5.93;4.38;;;;;;;;;;5047936;28;20048;-89
2021/10/30 15:09:33;;;;;;;5.97;4.20;;;;;;;;;;5047285;28;20068;-90
2021/10/30 15:11:59;;;;;;;5.60;4.60;;;;;;;;;;5042847;28;20053;-89
2021/10/30 15:14:25;;;;;;;5.07;4.50;;;;;;;;;;5032261;28;20071;-89
2021/10/30 15:16:52;;;;;;;7.63;5.47;;;;;;;;;;5050161;28;20029;-88
2021/10/30 15:19:19;;;;;;;6.28;4.85;;;;;;;;;;5029245;28;20120;-90
2021/10/30 15:21:46;;;;;;;6.18;4.50;;;;;;;;;;5044719;28;20032;-89
2021/10/30 15:24:12;;;;;;;5.00;4.22;;;;;;;;;;5041187;28;20045;-88